Weather at Graf Ignatievo Air Base

Public forecast

Using degrees Celsius for public forecast. Weather courtesy of forecast.io.

Current aviation weather report (METAR) for Graf Ignatievo Air Base

2023/03/28 04:00 (retrieved 36 minutes ago)

LBPG 280400Z 27040KT 9999 BKN100 04/M02 Q1004

Closest aviation forecast (TAF) to Graf Ignatievo Air Base

Forecast is more than 12 hours old.

Closest forecast is Kuk√ęs International Airport, 191.9 nm (355.3 km) W.

2023/03/27 12:00 Ammendment (retrieved 17 hours ago)

TAF AMD LAKU 271600Z 2712/2812 CNL